Thursday, April 17, 2014, 5:34 AM EDT

KOFP, Hanover County Municipal

Location: Ashland, VA, United States Lat: 37.7
Local Time: 5:34 AM EDT ( 9:34 GMT) Lon: -77.433
Time Zone: US/Eastern Elev: 203 ft

Show me the last for .
Show Decoded

2014-04-17 04:54 METAR KOFP 170854Z AUTO 00000KT 10SM CLR M01/M03 A3056 RMK AO2 SLP348 T10111028
                 53006 =
2014-04-17 03:54 METAR KOFP 170754Z AUTO 00000KT 10SM CLR M01/M03 A3055 RMK AO2 SLP345 T10111028
                 =
2014-04-17 02:54 METAR KOFP 170654Z AUTO 00000KT 10SM CLR M01/M03 A3053 RMK AO2 SLP340 T10111033
                 =
2014-04-17 01:54 METAR KOFP 170554Z AUTO 00000KT 10SM CLR M01/M03 A3054 RMK AO2 SLP343 T10061028
                 10067 21006 51006 =
2014-04-17 00:54 METAR KOFP 170454Z AUTO 00000KT 10SM CLR 00/M03 A3054 RMK AO2 SLP341 T00001028
                 401111006 =
2014-04-16 23:54 METAR KOFP 170354Z AUTO 00000KT 10SM CLR 01/M03 A3053 RMK AO2 SLP341 T00061028 =
2014-04-16 22:54 METAR KOFP 170254Z AUTO 00000KT 10SM CLR 01/M02 A3052 RMK AO2 SLP337 T00111022
                 51023 =
2014-04-16 21:54 METAR KOFP 170154Z AUTO 00000KT 10SM CLR 02/M03 A3051 RMK AO2 SLP333 T00171028 =
2014-04-16 20:54 METAR KOFP 170054Z AUTO 00000KT 10SM CLR 03/M02 A3048 RMK AO2 SLP324 T00331022 =
2014-04-16 19:54 METAR KOFP 162354Z AUTO 00000KT 10SM CLR 07/M06 A3045 RMK AO2 SLP314 T00671056
                 10111 20067 51012 =
2014-04-16 18:54 METAR KOFP 162254Z AUTO VRB03KT 10SM CLR 10/M09 A3044 RMK AO2 SLP309 T01001089 =
2014-04-16 17:54 METAR KOFP 162154Z AUTO VRB04KT 10SM CLR 11/M09 A3043 RMK AO2 SLP304 T01061089 =
2014-04-16 16:54 METAR KOFP 162054Z AUTO VRB05KT 10SM CLR 11/M09 A3042 RMK AO2 SLP300 T01061094
                 55006 =
2014-04-16 15:54 METAR KOFP 161954Z AUTO 00000KT 10SM CLR 11/M10 A3042 RMK AO2 SLP300 T01061100 =
2014-04-16 14:54 METAR KOFP 161854Z AUTO 35006KT 10SM CLR 11/M08 A3042 RMK AO2 SLP301 T01061083 =
2014-04-16 13:54 METAR KOFP 161754Z AUTO 34007G14KT 10SM CLR 09/M10 A3043 RMK AO2 SLP306
                 T00941100 10094 20011 58004 =
2014-04-16 12:54 METAR KOFP 161654Z AUTO 33011G18KT 290V020 10SM CLR 08/M09 A3044 RMK AO2 SLP309
                 T00781089 =
2014-04-16 11:54 METAR KOFP 161554Z AUTO 31009G15KT 10SM CLR 07/M08 A3046 RMK AO2 SLP314
                 T00671078 =
2014-04-16 10:54 METAR KOFP 161454Z AUTO 36008KT 330V050 10SM CLR 06/M08 A3045 RMK AO2 SLP312
                 T00561083 51033 =
2014-04-16 09:54 METAR KOFP 161354Z AUTO 34007G18KT 10SM CLR 04/M08 A3042 RMK AO2 SLP303
                 T00391083 =
2014-04-16 08:54 METAR KOFP 161254Z AUTO 34011G21KT 300V010 10SM CLR 02/M08 A3039 RMK AO2 SLP293
                 T00221083 $ =
2014-04-16 07:54 METAR KOFP 161154Z AUTO 33005KT 10SM CLR 01/M08 A3035 RMK AO2 SLP279 70089
                 T00111078 10022 21006 51044 =
2014-04-16 06:54 METAR KOFP 161054Z AUTO VRB03KT 10SM CLR 00/M08 A3032 RMK AO2 SLP268 T00001083 =
2014-04-16 05:54 METAR KOFP 160954Z AUTO 33005KT 10SM CLR 00/M09 A3027 RMK AO2 SLP252 T00001089 =

Support USWX by starting your Amazon purchase here.